Time;durP1;ratioP1;P1;durP2;ratioP2;P2;SDS_P1;SDS_P2;PMS_P1;PMS_P2;Temp;Humidity;BMP_temperature;BMP_pressure;BME280_temperature;BME280_humidity;BME280_pressure;Samples;Min_cycle;Max_cycle;Signal;HPM_P1;HPM_P2
2022/08/11 00:00:36;;;;;;;10.27;5.22;;;28.80;94.60;;;;;;5092418;27;20071;-77
2022/08/11 00:03:06;;;;;;;11.38;6.22;;;28.70;94.50;;;;;;5097868;27;20452;-75
2022/08/11 00:05:47;;;;;;;8.93;5.75;;;28.70;94.50;;;;;;5073579;28;20474;-75
2022/08/11 00:08:27;;;;;;;8.57;4.75;;;28.80;94.40;;;;;;5070151;28;20391;-75
2022/08/11 00:11:01;;;;;;;10.00;5.03;;;28.80;94.20;;;;;;5057146;28;20041;-75
2022/08/11 00:13:40;;;;;;;9.90;5.32;;;28.70;94.20;;;;;;5057443;28;20423;-75
2022/08/11 00:16:17;;;;;;;10.45;5.47;;;28.70;94.10;;;;;;5056912;28;20068;-75
2022/08/11 00:18:47;;;;;;;11.07;6.22;;;28.80;93.90;;;;;;5054864;28;20056;-75
2022/08/11 00:21:16;;;;;;;9.57;5.85;;;28.70;93.90;;;;;;5055566;28;20131;-76
2022/08/11 00:23:51;;;;;;;10.88;5.35;;;28.70;93.90;;;;;;5073493;28;20033;-75
2022/08/11 00:26:21;;;;;;;8.50;4.63;;;28.70;93.90;;;;;;5073731;28;20045;-76
2022/08/11 00:28:50;;;;;;;9.50;5.57;;;28.70;93.90;;;;;;5073514;28;20045;-76
2022/08/11 00:31:28;;;;;;;10.40;5.60;;;28.70;93.90;;;;;;5090856;28;20432;-76
2022/08/11 00:33:59;;;;;;;9.60;5.78;;;28.60;93.90;;;;;;5056688;28;20521;-77
2022/08/11 00:36:50;;;;;;;7.15;4.47;;;28.60;94.00;;;;;;5072936;28;20051;-76
2022/08/11 00:39:21;;;;;;;8.45;5.78;;;28.70;94.10;;;;;;5079100;28;20059;-75
2022/08/11 00:42:28;;;;;;;13.95;6.22;;;28.70;94.10;;;;;;5055479;28;20402;-76
2022/08/11 00:45:14;;;;;;;;;;;28.60;94.10;;;;;;5053938;28;20060;-76
2022/08/11 00:48:06;;;;;;;11.10;5.43;;;28.70;94.10;;;;;;5086038;28;20305;-76
2022/08/11 00:51:02;;;;;;;8.25;4.93;;;28.70;94.10;;;;;;5089562;28;20140;-76
2022/08/11 00:53:50;;;;;;;8.30;4.90;;;28.70;94.10;;;;;;5064694;28;20442;-76
2022/08/11 00:56:52;;;;;;;7.65;5.93;;;28.60;94.20;;;;;;5070299;28;20563;-75
2022/08/11 00:59:45;;;;;;;7.75;4.93;;;28.50;94.40;;;;;;5075533;28;20087;-74
2022/08/11 01:02:39;;;;;;;11.13;4.95;;;28.50;94.60;;;;;;5079594;28;20051;-75
2022/08/11 01:05:26;;;;;;;8.07;4.40;;;28.40;94.80;;;;;;5061014;28;20040;-74
2022/08/11 01:08:17;;;;;;;8.48;4.95;;;28.30;94.90;;;;;;5084110;28;20091;-75
2022/08/11 01:10:50;;;;;;;8.25;5.00;;;28.30;95.20;;;;;;5051050;28;20049;-75
2022/08/11 01:13:35;;;;;;;12.32;5.03;;;28.20;95.30;;;;;;5053864;28;20049;-75
2022/08/11 01:16:19;;;;;;;11.43;5.50;;;28.20;95.50;;;;;;5052616;28;20144;-75
2022/08/11 01:18:59;;;;;;;9.00;6.15;;;28.20;95.80;;;;;;5086017;28;20049;-74
2022/08/11 01:21:35;;;;;;;9.80;4.97;;;28.10;96.00;;;;;;5086275;28;20049;-75
2022/08/11 01:24:35;;;;;;;11.10;4.40;;;28.10;96.10;;;;;;5086616;28;20076;-75
2022/08/11 01:27:28;;;;;;;7.07;4.38;;;28.10;96.30;;;;;;5050943;28;20056;-75
2022/08/11 01:30:33;;;;;;;10.75;4.85;;;28.00;96.40;;;;;;5051559;28;20674;-75
2022/08/11 01:33:19;;;;;;;8.18;4.40;;;28.00;96.70;;;;;;5050728;28;20590;-75
2022/08/11 01:36:29;;;;;;;9.20;4.88;;;27.90;96.80;;;;;;5083478;28;20098;-75
2022/08/11 01:39:18;;;;;;;10.48;4.40;;;27.90;96.90;;;;;;5066997;28;20124;-75
2022/08/11 01:45:02;;;;;;;8.70;5.07;;;27.90;97.20;;;;;;5052632;28;20392;-75
2022/08/11 01:47:52;;;;;;;9.48;5.05;;;27.90;97.40;;;;;;5086012;28;20045;-75
2022/08/11 01:50:31;;;;;;;9.38;4.75;;;27.80;97.40;;;;;;5052179;28;20135;-74
2022/08/11 01:53:20;;;;;;;9.93;4.78;;;27.80;97.60;;;;;;5035704;28;20044;-75
2022/08/11 01:56:00;;;;;;;11.07;4.57;;;27.80;97.70;;;;;;5068964;28;20087;-75
2022/08/11 01:59:14;;;;;;;8.23;4.30;;;27.80;97.70;;;;;;5085559;28;20125;-75
2022/08/11 02:02:06;;;;;;;10.15;5.82;;;27.70;97.70;;;;;;5061371;28;20479;-75
2022/08/11 02:04:49;;;;;;;7.18;4.40;;;27.80;97.70;;;;;;5085906;28;20045;-74
2022/08/11 02:07:48;;;;;;;15.27;5.93;;;27.80;97.70;;;;;;5068777;28;20424;-75
2022/08/11 02:13:22;;;;;;;9.57;4.47;;;27.70;97.80;;;;;;5053302;28;20076;-74
2022/08/11 02:16:02;;;;;;;8.82;4.50;;;27.70;97.90;;;;;;5053613;28;20360;-75
2022/08/11 02:25:12;;;;;;;9.25;4.28;;;27.60;97.80;;;;;;5052277;28;20076;-74
2022/08/11 02:27:50;;;;;;;7.28;4.40;;;27.60;97.90;;;;;;5038882;28;20053;-74
2022/08/11 02:30:23;;;;;;;10.05;4.32;;;27.60;97.90;;;;;;5068364;28;20049;-74
2022/08/11 02:33:24;;;;;;;7.68;4.75;;;27.60;97.90;;;;;;5085314;28;20076;-74
2022/08/11 02:35:57;;;;;;;17.55;4.35;;;27.60;98.00;;;;;;5052990;28;20423;-74
2022/08/11 02:38:35;;;;;;;6.75;4.32;;;27.50;97.90;;;;;;5051789;28;20052;-74
2022/08/11 02:42:21;;;;;;;8.65;5.05;;;27.50;98.00;;;;;;5052170;28;20147;-74
2022/08/11 02:44:24;;;;;;;9.38;4.75;;;27.50;98.00;;;;;;5053575;28;20040;-74
2022/08/11 02:47:18;;;;;;;10.40;3.97;;;27.50;98.00;;;;;;5055409;28;20045;-75
2022/08/11 02:49:59;;;;;;;10.60;4.55;;;27.50;98.00;;;;;;5056068;28;20044;-75
2022/08/11 02:52:51;;;;;;;10.43;4.50;;;27.50;98.00;;;;;;5055765;28;20045;-75
2022/08/11 02:55:40;;;;;;;7.95;4.47;;;27.50;98.00;;;;;;5088846;28;20072;-75
2022/08/11 02:58:25;;;;;;;12.27;5.47;;;27.50;98.10;;;;;;5072454;28;20076;-75
2022/08/11 03:01:32;;;;;;;9.45;5.03;;;27.50;98.10;;;;;;5075652;28;20102;-75
2022/08/11 03:04:02;;;;;;;;;;;27.50;98.20;;;;;;5083304;28;20061;-75
2022/08/11 03:07:16;;;;;;;9.05;4.25;;;27.50;98.30;;;;;;5088483;28;19928;-74
2022/08/11 03:09:54;;;;;;;8.00;4.10;;;27.50;98.30;;;;;;5063260;28;20064;-75
2022/08/11 03:16:45;;;;;;;9.13;4.25;;;27.50;98.40;;;;;;5042948;28;20036;-75
2022/08/11 03:20:06;;;;;;;9.32;4.65;;;27.40;98.50;;;;;;5063128;28;20084;-74
2022/08/11 03:22:55;;;;;;;10.60;4.88;;;27.40;98.60;;;;;;5077369;28;20048;-74
2022/08/11 03:25:57;;;;;;;11.82;3.53;;;27.40;98.60;;;;;;5054992;28;20045;-75
2022/08/11 03:28:41;;;;;;;13.57;5.45;;;27.40;98.70;;;;;;5071189;28;20052;-74
2022/08/11 03:31:49;;;;;;;10.00;3.90;;;27.40;98.80;;;;;;5038203;28;20044;-75
2022/08/11 03:34:29;;;;;;;10.13;4.50;;;27.40;98.90;;;;;;5071162;28;20044;-75
2022/08/11 03:36:57;;;;;;;12.52;4.32;;;27.40;98.90;;;;;;5088127;28;20502;-74
2022/08/11 03:39:54;;;;;;;7.72;3.95;;;27.40;99.00;;;;;;5087500;28;20411;-75
2022/08/11 03:42:33;;;;;;;8.80;3.92;;;27.40;99.00;;;;;;5042423;28;20048;-74
2022/08/11 03:45:34;;;;;;;10.77;4.20;;;27.40;99.00;;;;;;5038420;28;20135;-75
2022/08/11 03:48:44;;;;;;;7.88;4.55;;;27.40;99.00;;;;;;5057698;28;20407;-75
2022/08/11 03:51:26;;;;;;;5.45;4.03;;;27.40;99.10;;;;;;5087600;28;20037;-75
2022/08/11 03:53:57;;;;;;;9.57;4.68;;;27.40;99.00;;;;;;5090177;28;20124;-75
2022/08/11 03:56:46;;;;;;;7.85;4.07;;;27.40;99.00;;;;;;5087038;28;20049;-74
2022/08/11 03:59:22;;;;;;;8.95;4.75;;;27.40;99.00;;;;;;5055389;28;20049;-75
2022/08/11 04:02:12;;;;;;;14.07;4.97;;;27.40;99.00;;;;;;5087687;28;20094;-75
2022/08/11 04:04:58;;;;;;;9.68;4.13;;;27.40;99.10;;;;;;5070829;28;20041;-75
2022/08/11 04:08:05;;;;;;;14.98;5.63;;;27.40;99.10;;;;;;5037533;28;20450;-74
2022/08/11 04:10:57;;;;;;;;;;;27.40;99.10;;;;;;5054660;28;20044;-74
2022/08/11 04:15:59;;;;;;;9.18;4.63;;;27.40;99.10;;;;;;5053689;28;19960;-74
2022/08/11 04:17:06;;;;;;;10.20;5.15;;;27.40;99.10;;;;;;5087943;28;20045;-74
2022/08/11 04:19:52;;;;;;;15.80;5.75;;;27.40;99.20;;;;;;5053867;28;20044;-74
2022/08/11 04:22:24;;;;;;;9.10;3.80;;;27.50;99.20;;;;;;5070669;28;20041;-74
2022/08/11 04:25:24;;;;;;;9.65;4.82;;;27.50;99.20;;;;;;5054065;28;20388;-75
2022/08/11 04:28:23;;;;;;;10.73;5.93;;;27.50;99.30;;;;;;5057653;28;20048;-74
2022/08/11 04:31:28;;;;;;;8.38;4.72;;;27.50;99.30;;;;;;5052771;28;20052;-74
2022/08/11 04:34:07;;;;;;;9.55;4.93;;;27.50;99.40;;;;;;5053426;28;20060;-74
2022/08/11 04:40:01;;;;;;;12.88;6.40;;;27.60;99.20;;;;;;5053276;28;20095;-75
2022/08/11 04:43:22;;;;;;;12.75;5.32;;;27.70;99.30;;;;;;5055568;28;20095;-74
2022/08/11 04:46:12;;;;;;;7.72;4.85;;;27.80;99.30;;;;;;5087098;28;20441;-74
2022/08/11 05:02:21;;;;;;;13.85;6.13;;;28.40;98.80;;;;;;5032168;28;20050;-74
2022/08/11 05:08:21;;;;;;;14.70;5.82;;;28.50;98.70;;;;;;5052698;28;20052;-74
2022/08/11 05:11:24;;;;;;;9.98;5.22;;;28.50;98.70;;;;;;5052606;28;20460;-74
2022/08/11 05:34:53;;;;;;;7.78;5.57;;;29.40;94.80;;;;;;5052538;28;20402;-74
2022/08/11 05:37:31;;;;;;;7.20;5.05;;;29.50;93.50;;;;;;5068943;28;20072;-74
2022/08/11 05:57:24;;;;;;;11.88;7.45;;;30.40;91.60;;;;;;5053466;28;20045;-74
2022/08/11 05:59:59;;;;;;;11.60;8.30;;;30.50;91.80;;;;;;5053384;28;20052;-74
2022/08/11 06:02:28;;;;;;;12.82;8.90;;;30.60;91.80;;;;;;5053449;28;20073;-74
2022/08/11 06:05:00;;;;;;;12.85;8.15;;;30.80;91.70;;;;;;5068706;28;20047;-74
2022/08/11 06:07:32;;;;;;;16.52;10.73;;;31.00;91.70;;;;;;5085345;28;20041;-74
2022/08/11 06:10:01;;;;;;;15.20;11.30;;;31.00;91.60;;;;;;5068583;28;20506;-74
2022/08/11 06:12:32;;;;;;;16.90;11.65;;;31.10;91.30;;;;;;5053515;28;20056;-74
2022/08/11 06:15:05;;;;;;;17.40;11.63;;;31.10;90.90;;;;;;5085837;28;20052;-74
2022/08/11 06:17:45;;;;;;;18.60;12.27;;;31.20;90.80;;;;;;5053351;28;20037;-74
2022/08/11 06:20:14;;;;;;;15.85;11.15;;;31.30;91.00;;;;;;5071697;28;20072;-74
2022/08/11 06:22:44;;;;;;;15.68;12.52;;;31.30;90.80;;;;;;5089602;28;20084;-74
2022/08/11 06:25:16;;;;;;;12.50;10.05;;;31.40;90.70;;;;;;5057492;28;20095;-74
2022/08/11 06:27:45;;;;;;;12.40;10.45;;;31.50;90.50;;;;;;5072325;28;20128;-74
2022/08/11 06:30:13;;;;;;;16.60;10.55;;;31.50;90.00;;;;;;5089517;28;20049;-74
2022/08/11 06:32:44;;;;;;;12.50;10.10;;;31.50;89.70;;;;;;5068389;28;20045;-74
2022/08/11 06:35:22;;;;;;;19.15;10.63;;;31.70;89.20;;;;;;5075633;28;20052;-74
2022/08/11 06:37:53;;;;;;;13.13;10.07;;;31.80;88.80;;;;;;5042660;28;20090;-74
2022/08/11 06:41:29;;;;;;;13.95;10.43;;;31.90;88.30;;;;;;5076833;28;20048;-74
2022/08/11 06:43:53;;;;;;;14.20;10.80;;;32.00;87.90;;;;;;5076734;28;20444;-74
2022/08/11 06:46:36;;;;;;;13.05;10.48;;;32.00;86.80;;;;;;5109479;28;20045;-74
2022/08/11 06:52:05;;;;;;;14.20;10.98;;;31.90;86.50;;;;;;5105680;27;20044;-74
2022/08/11 06:54:40;;;;;;;15.40;11.32;;;31.90;86.50;;;;;;5092123;28;20057;-74
2022/08/11 07:03:02;;;;;;;11.23;8.95;;;32.10;84.40;;;;;;5056376;28;20455;-74
2022/08/11 07:06:14;;;;;;;12.77;9.40;;;32.30;83.70;;;;;;5068643;28;20036;-73
2022/08/11 07:28:54;;;;;;;12.07;8.25;;;32.60;83.00;;;;;;5074237;28;20159;-74
2022/08/11 07:29:13;;;;;;;8.98;7.57;;;33.00;78.80;;;;;;5066351;28;20394;-73
2022/08/11 07:31:48;;;;;;;13.15;7.72;;;33.10;78.20;;;;;;5071786;28;20403;-73
2022/08/11 07:34:17;;;;;;;9.10;7.70;;;33.20;78.20;;;;;;5053646;28;20048;-73
2022/08/11 07:36:54;;;;;;;9.43;6.95;;;33.10;76.30;;;;;;5069896;28;20043;-76
2022/08/11 07:39:27;;;;;;;9.60;7.20;;;33.00;75.60;;;;;;5065012;28;20399;-73
2022/08/11 07:41:57;;;;;;;8.35;6.40;;;32.90;76.60;;;;;;5056305;28;20059;-75
2022/08/11 07:44:30;;;;;;;9.50;5.65;;;33.10;76.80;;;;;;5047230;28;20037;-74
2022/08/11 07:52:39;;;;;;;9.23;5.60;;;33.30;75.10;;;;;;5053059;28;20080;-74
2022/08/11 07:55:16;;;;;;;8.45;6.35;;;33.30;75.20;;;;;;5099595;28;20055;-74
2022/08/11 08:20:30;;;;;;;7.45;6.07;;;34.00;71.20;;;;;;5073843;28;20040;-73
2022/08/11 08:23:01;;;;;;;6.50;5.40;;;33.80;70.90;;;;;;5075105;28;20086;-73
2022/08/11 08:25:31;;;;;;;8.05;5.20;;;33.70;70.80;;;;;;5074087;28;20506;-74
2022/08/11 08:28:03;;;;;;;7.97;5.63;;;33.70;71.80;;;;;;5073550;28;20053;-74
2022/08/11 08:30:46;;;;;;;8.13;5.40;;;33.60;71.00;;;;;;5073635;28;20063;-74
2022/08/11 08:33:26;;;;;;;8.30;5.60;;;33.50;71.40;;;;;;5073517;28;20033;-74
2022/08/11 08:36:10;;;;;;;7.85;5.00;;;33.40;71.30;;;;;;5073534;28;20397;-74
2022/08/11 08:38:48;;;;;;;6.93;4.80;;;33.50;71.10;;;;;;5074586;28;20045;-74
2022/08/11 08:41:31;;;;;;;9.10;5.18;;;33.50;71.20;;;;;;5074582;28;20461;-74
2022/08/11 08:44:06;;;;;;;6.65;4.97;;;33.60;70.50;;;;;;5056966;28;20552;-74
2022/08/11 08:46:56;;;;;;;10.25;5.70;;;33.60;70.60;;;;;;5059561;28;20076;-73
2022/08/11 08:49:43;;;;;;;7.63;5.03;;;33.70;70.40;;;;;;5056813;28;20044;-74
2022/08/11 08:52:13;;;;;;;8.13;4.85;;;33.80;70.00;;;;;;5040294;28;20048;-74
2022/08/11 08:54:43;;;;;;;5.78;4.57;;;33.90;69.80;;;;;;5073277;28;20045;-74
2022/08/11 08:57:12;;;;;;;7.32;5.22;;;33.90;69.40;;;;;;5056589;28;20475;-74
2022/08/11 08:59:43;;;;;;;7.93;5.57;;;34.10;68.60;;;;;;5056520;28;20086;-73
2022/08/11 09:02:12;;;;;;;6.85;5.72;;;34.10;67.90;;;;;;5074670;28;20046;-74
2022/08/11 09:04:41;;;;;;;5.22;4.50;;;33.90;67.90;;;;;;5073088;28;20087;-74
2022/08/11 09:07:11;;;;;;;8.80;5.18;;;34.00;67.10;;;;;;5038245;28;20048;-74
2022/08/11 09:09:51;;;;;;;5.93;4.30;;;33.80;66.50;;;;;;5072759;28;20052;-74
2022/08/11 09:12:20;;;;;;;8.20;5.53;;;33.70;67.20;;;;;;5072782;28;20097;-73
2022/08/11 09:15:06;;;;;;;6.35;4.97;;;33.80;67.00;;;;;;5072918;28;20090;-72
2022/08/11 09:18:04;;;;;;;5.45;3.97;;;33.80;66.20;;;;;;5089333;28;20048;-74
2022/08/11 09:20:37;;;;;;;8.35;5.10;;;33.80;65.90;;;;;;5056616;28;20151;-72
2022/08/11 09:29:03;;;;;;;6.32;4.90;;;33.70;70.10;;;;;;5073702;28;20036;-74
2022/08/11 09:31:33;;;;;;;8.32;5.00;;;33.70;70.80;;;;;;5056101;28;20044;-74
2022/08/11 09:34:04;;;;;;;7.13;4.75;;;33.80;70.50;;;;;;5089096;28;20098;-74
2022/08/11 09:42:06;;;;;;;9.32;5.53;;;34.20;69.60;;;;;;5072422;28;20047;-73
2022/08/11 09:44:46;;;;;;;10.68;5.20;;;34.30;69.60;;;;;;5072296;28;20045;-73
2022/08/11 09:47:29;;;;;;;7.55;5.45;;;34.10;69.70;;;;;;5089099;28;20513;-73
2022/08/11 09:50:02;;;;;;;9.18;5.28;;;34.00;70.20;;;;;;5088578;28;20051;-74
2022/08/11 09:52:37;;;;;;;7.88;4.80;;;34.10;70.80;;;;;;5089519;28;20040;-74
2022/08/11 09:55:09;;;;;;;7.60;5.43;;;34.20;71.00;;;;;;5105341;28;20048;-74
2022/08/11 10:00:36;;;;;;;10.68;5.32;;;34.20;71.30;;;;;;5051915;28;20107;-74
2022/08/11 10:03:17;;;;;;;7.87;5.60;;;34.10;70.40;;;;;;5068046;28;20049;-74
2022/08/11 10:08:40;;;;;;;9.70;4.55;;;33.90;70.30;;;;;;5052016;28;20037;-74
2022/08/11 10:11:11;;;;;;;8.40;5.45;;;34.00;70.40;;;;;;5053510;28;20072;-73
2022/08/11 10:16:36;;;;;;;36.92;9.18;;;33.70;69.10;;;;;;5053195;28;20564;-73
2022/08/11 10:19:05;;;;;;;12.95;7.53;;;33.60;69.40;;;;;;5052513;28;20138;-73
2022/08/11 10:21:43;;;;;;;13.95;10.57;;;33.60;70.40;;;;;;5085330;28;20067;-73
2022/08/11 10:27:18;;;;;;;34.13;31.25;;;33.70;69.90;;;;;;5050656;28;20072;-73
2022/08/11 10:35:24;;;;;;;1192.30;800.95;;;33.60;69.50;;;;;;5052008;28;20041;-72
2022/08/11 10:37:53;;;;;;;425.52;348.48;;;33.70;70.30;;;;;;5035024;28;20049;-73
2022/08/11 10:40:22;;;;;;;1372.65;886.28;;;33.70;69.70;;;;;;5068389;28;20037;-72
2022/08/11 10:43:05;;;;;;;678.50;581.33;;;33.60;69.70;;;;;;5051783;28;20445;-72
2022/08/11 10:48:36;;;;;;;344.85;297.77;;;33.70;68.90;;;;;;5053056;28;20048;-73
2022/08/11 10:51:13;;;;;;;61.13;50.72;;;33.70;68.60;;;;;;5079557;28;20059;-73
2022/08/11 10:59:28;;;;;;;302.73;269.42;;;34.10;68.70;;;;;;5072980;28;20045;-72
2022/08/11 11:01:57;;;;;;;201.55;178.95;;;34.00;67.80;;;;;;5072916;28;20047;-73
2022/08/11 11:04:38;;;;;;;119.63;106.45;;;34.10;68.10;;;;;;5088291;28;20451;-73
2022/08/11 11:07:18;;;;;;;95.47;81.72;;;34.10;67.70;;;;;;5059118;28;20158;-73
2022/08/11 11:09:54;;;;;;;258.77;233.82;;;34.00;67.40;;;;;;5075372;28;20041;-73
2022/08/11 11:18:35;;;;;;;8.00;5.90;;;33.80;69.60;;;;;;5069369;28;20041;-73
2022/08/11 11:21:14;;;;;;;8.38;6.18;;;33.90;69.60;;;;;;5090862;28;20392;-73
2022/08/11 11:24:13;;;;;;;7.50;5.13;;;34.00;69.40;;;;;;5062403;28;20041;-73
2022/08/11 11:27:11;;;;;;;6.78;5.10;;;33.90;69.70;;;;;;5073698;28;20114;-73
2022/08/11 11:29:44;;;;;;;9.27;5.07;;;33.80;69.40;;;;;;5071102;28;20049;-73
2022/08/11 11:32:43;;;;;;;7.88;5.00;;;33.90;69.80;;;;;;5070944;28;20045;-72
2022/08/11 11:35:29;;;;;;;6.45;4.50;;;33.80;69.70;;;;;;5073794;28;20510;-73
2022/08/11 11:37:58;;;;;;;9.23;4.68;;;33.80;69.60;;;;;;5053665;28;20554;-74
2022/08/11 11:40:28;;;;;;;6.63;4.90;;;33.90;69.60;;;;;;5080953;28;20036;-72
2022/08/11 11:42:58;;;;;;;7.20;5.15;;;33.80;69.50;;;;;;5067943;28;20048;-73
2022/08/11 11:45:26;;;;;;;8.57;4.78;;;33.80;69.60;;;;;;5073903;28;20390;-72
2022/08/11 11:47:57;;;;;;;6.57;4.20;;;33.80;69.50;;;;;;5060190;28;20052;-73
2022/08/11 11:50:27;;;;;;;9.40;4.53;;;33.70;69.70;;;;;;5091027;28;20471;-73
2022/08/11 11:52:59;;;;;;;6.38;4.75;;;33.70;69.90;;;;;;5043980;28;20053;-73
2022/08/11 11:55:28;;;;;;;11.38;4.90;;;33.70;70.70;;;;;;5068901;28;20083;-72
2022/08/11 12:03:38;;;;;;;7.05;4.97;;;33.60;71.50;;;;;;5066318;28;20068;-73
2022/08/11 12:06:08;;;;;;;8.00;4.38;;;33.50;71.90;;;;;;5065476;28;20437;-72
2022/08/11 12:08:36;;;;;;;6.32;5.10;;;33.50;72.00;;;;;;5070448;28;20040;-73
2022/08/11 12:13:56;;;;;;;9.13;4.40;;;33.50;72.50;;;;;;5058938;28;20114;-72
2022/08/11 12:16:24;;;;;;;7.93;4.90;;;33.40;72.40;;;;;;5035332;28;20403;-72
2022/08/11 12:18:58;;;;;;;7.78;4.75;;;33.50;72.90;;;;;;5053199;28;20037;-72
2022/08/11 12:21:28;;;;;;;6.07;4.25;;;33.20;73.00;;;;;;5052588;28;20087;-76
2022/08/11 12:29:19;;;;;;;7.18;4.18;;;33.00;75.80;;;;;;5052559;28;20517;-72
2022/08/11 12:31:48;;;;;;;6.63;3.88;;;33.00;77.50;;;;;;5052397;28;20037;-72
2022/08/11 12:34:16;;;;;;;6.45;3.55;;;32.90;75.90;;;;;;5035331;28;20111;-72
2022/08/11 12:36:50;;;;;;;8.73;4.22;;;32.80;76.40;;;;;;5052247;28;20499;-72
2022/08/11 12:45:26;;;;;;;9.50;4.50;;;32.70;76.10;;;;;;5053579;28;20052;-72
2022/08/11 12:53:36;;;;;;;8.30;4.90;;;32.30;78.40;;;;;;5052042;28;20049;-73
2022/08/11 12:58:53;;;;;;;7.30;5.38;;;32.30;77.50;;;;;;5074954;28;20059;-72
2022/08/11 13:06:53;;;;;;;8.75;4.97;;;32.40;77.40;;;;;;5054141;28;20095;-73
2022/08/11 13:09:22;;;;;;;34.00;8.70;;;32.30;76.30;;;;;;5052844;28;20076;-72
2022/08/11 13:14:50;;;;;;;9.90;5.80;;;32.10;76.40;;;;;;5047329;28;20056;-72
2022/08/11 13:17:21;;;;;;;9.25;5.13;;;32.20;76.80;;;;;;5069258;28;20045;-72
2022/08/11 13:19:50;;;;;;;5.93;4.50;;;32.20;76.40;;;;;;5069377;28;20037;-72
2022/08/11 13:22:20;;;;;;;8.45;5.45;;;32.30;75.90;;;;;;5052755;28;20057;-72
2022/08/11 13:24:50;;;;;;;9.38;5.57;;;32.30;76.10;;;;;;5068992;28;20045;-72
2022/08/11 13:27:19;;;;;;;10.25;5.30;;;32.20;74.80;;;;;;5052707;28;20053;-72
2022/08/11 13:29:51;;;;;;;10.73;5.85;;;32.30;74.40;;;;;;5085662;28;20068;-72
2022/08/11 13:32:20;;;;;;;8.75;6.43;;;32.10;73.80;;;;;;5053820;28;20045;-72
2022/08/11 13:34:48;;;;;;;7.88;6.63;;;32.10;74.00;;;;;;5053543;28;20049;-72
2022/08/11 13:37:19;;;;;;;8.75;5.30;;;32.00;73.90;;;;;;5052581;28;20076;-72
2022/08/11 13:39:47;;;;;;;7.22;4.90;;;31.90;73.80;;;;;;5086422;28;20052;-72
2022/08/11 13:42:19;;;;;;;10.25;5.47;;;32.00;73.10;;;;;;5086029;28;20127;-72
2022/08/11 13:44:47;;;;;;;8.05;6.18;;;31.90;73.10;;;;;;5068957;28;20091;-72
2022/08/11 13:47:15;;;;;;;9.18;6.18;;;32.00;73.00;;;;;;5068554;28;20134;-72
2022/08/11 13:49:44;;;;;;;9.63;5.75;;;31.90;73.40;;;;;;5053566;28;20041;-73
2022/08/11 13:52:15;;;;;;;9.82;6.03;;;31.90;73.30;;;;;;5053829;28;20049;-72
2022/08/11 13:54:46;;;;;;;10.80;6.22;;;31.90;72.60;;;;;;5085844;28;20452;-72
2022/08/11 13:57:17;;;;;;;10.07;6.50;;;31.90;71.70;;;;;;5069179;28;20139;-72
2022/08/11 13:59:50;;;;;;;9.02;5.57;;;31.90;72.50;;;;;;5052322;28;20056;-72
2022/08/11 14:02:27;;;;;;;8.05;5.95;;;32.00;72.90;;;;;;5053464;28;20045;-72
2022/08/11 14:05:01;;;;;;;7.18;5.60;;;31.70;72.90;;;;;;5085831;28;20064;-72
2022/08/11 14:07:38;;;;;;;9.50;6.50;;;31.80;73.20;;;;;;5068881;28;20053;-72
2022/08/11 14:10:11;;;;;;;8.15;5.03;;;31.80;73.30;;;;;;5068843;28;20387;-73
2022/08/11 14:15:32;;;;;;;6.40;4.75;;;31.70;72.20;;;;;;5053760;28;20049;-73
2022/08/11 14:18:05;;;;;;;6.32;4.80;;;31.70;72.60;;;;;;5085216;28;20053;-73
2022/08/11 14:23:35;;;;;;;6.10;4.65;;;31.50;73.00;;;;;;5085453;28;20045;-73
2022/08/11 14:26:22;;;;;;;7.78;4.97;;;31.50;73.50;;;;;;5068706;28;20045;-73
2022/08/11 14:28:55;;;;;;;8.55;4.72;;;31.50;74.80;;;;;;5068339;28;20053;-73
2022/08/11 14:31:25;;;;;;;7.18;5.00;;;31.50;75.30;;;;;;5068416;28;20392;-73
2022/08/11 14:33:55;;;;;;;7.40;4.85;;;31.60;76.20;;;;;;5051961;28;20038;-73
2022/08/11 14:36:27;;;;;;;7.45;5.35;;;31.60;76.30;;;;;;5085179;28;20049;-73
2022/08/11 14:38:56;;;;;;;8.45;4.75;;;31.70;76.60;;;;;;5084978;28;20043;-73
2022/08/11 14:47:06;;;;;;;10.70;5.18;;;31.60;78.50;;;;;;5095558;28;20445;-73
2022/08/11 14:49:37;;;;;;;7.97;5.13;;;31.60;78.70;;;;;;5109442;28;20044;-73
2022/08/11 14:52:13;;;;;;;8.20;5.65;;;31.50;79.30;;;;;;5076666;28;20560;-74
2022/08/11 14:57:35;;;;;;;6.72;4.75;;;31.50;79.10;;;;;;5076928;28;20055;-71
2022/08/11 15:00:05;;;;;;;8.10;5.78;;;31.60;78.80;;;;;;5058587;28;20052;-72
2022/08/11 15:05:24;;;;;;;10.10;6.03;;;31.50;79.70;;;;;;5058662;28;20055;-72
2022/08/11 15:07:55;;;;;;;8.10;5.43;;;31.50;79.50;;;;;;5092034;28;20048;-72
2022/08/11 15:10:23;;;;;;;7.70;5.38;;;31.50;79.90;;;;;;5058331;28;20084;-72
2022/08/11 15:12:51;;;;;;;7.60;5.28;;;31.50;79.40;;;;;;5074950;28;20032;-72
2022/08/11 15:18:16;;;;;;;11.00;5.75;;;31.40;79.20;;;;;;5076211;28;20037;-72
2022/08/11 15:37:54;;;;;;;18.75;6.63;;;31.20;80.50;;;;;;5074620;28;20040;-72
2022/08/11 15:46:15;;;;;;;9.40;5.50;;;31.00;80.90;;;;;;5074713;28;20045;-72
2022/08/11 15:48:47;;;;;;;6.90;5.50;;;31.10;81.70;;;;;;5058187;28;20394;-72
2022/08/11 15:51:36;;;;;;;10.23;6.10;;;31.00;81.40;;;;;;5073741;28;20135;-72
2022/08/11 15:54:20;;;;;;;9.90;5.55;;;31.00;81.20;;;;;;5107887;28;20098;-71
2022/08/11 15:56:53;;;;;;;9.93;5.68;;;30.90;81.20;;;;;;5091374;28;20049;-72
2022/08/11 16:05:05;;;;;;;6.60;4.70;;;30.80;80.70;;;;;;5057647;28;20512;-72
2022/08/11 16:07:34;;;;;;;7.30;5.53;;;30.70;80.70;;;;;;5074537;28;20048;-72
2022/08/11 16:10:09;;;;;;;7.43;5.20;;;30.70;79.60;;;;;;5057682;28;20048;-72
2022/08/11 16:18:39;;;;;;;5.38;4.50;;;30.60;79.40;;;;;;5057503;28;20052;-72
2022/08/11 16:21:12;;;;;;;7.28;5.20;;;30.70;80.60;;;;;;5107852;28;20044;-72
2022/08/11 16:23:44;;;;;;;7.90;5.65;;;30.70;80.80;;;;;;5074931;28;20101;-72
2022/08/11 16:26:16;;;;;;;7.60;4.88;;;30.70;81.20;;;;;;5090591;28;20040;-72
2022/08/11 16:28:45;;;;;;;7.22;5.45;;;30.70;81.30;;;;;;5073676;28;20055;-72
2022/08/11 16:31:14;;;;;;;6.97;5.13;;;30.70;81.20;;;;;;5073583;28;20055;-72
2022/08/11 16:33:42;;;;;;;7.78;5.05;;;30.60;81.80;;;;;;5090367;28;20039;-73
2022/08/11 16:39:00;;;;;;;7.22;5.38;;;30.60;81.20;;;;;;5073634;28;20043;-72
2022/08/11 16:47:14;;;;;;;7.18;5.47;;;30.50;82.10;;;;;;5074687;28;20047;-72
2022/08/11 16:49:50;;;;;;;8.00;5.88;;;30.50;82.50;;;;;;5074531;28;20040;-72
2022/08/11 16:52:19;;;;;;;9.32;5.43;;;30.50;83.10;;;;;;5089698;28;20494;-72
2022/08/11 16:54:47;;;;;;;8.63;6.18;;;30.40;83.30;;;;;;5089923;28;20486;-72
2022/08/11 17:00:15;;;;;;;7.85;6.00;;;30.40;83.40;;;;;;5073106;28;20044;-72
2022/08/11 17:14:42;;;;;;;11.50;7.35;;;30.20;84.70;;;;;;5073275;28;20090;-72
2022/08/11 17:17:17;;;;;;;9.93;7.15;;;30.20;84.80;;;;;;5089570;28;20383;-72
2022/08/11 17:19:49;;;;;;;8.32;7.03;;;30.10;85.40;;;;;;5072638;28;20058;-73
2022/08/11 17:25:08;;;;;;;11.73;7.95;;;30.10;85.70;;;;;;5073855;28;20387;-72
2022/08/11 17:27:37;;;;;;;10.27;7.68;;;30.10;85.80;;;;;;5072695;28;20375;-72
2022/08/11 17:30:08;;;;;;;11.43;7.15;;;30.00;85.70;;;;;;5105792;28;20558;-72
2022/08/11 17:35:43;;;;;;;9.75;6.95;;;30.00;85.40;;;;;;5071418;28;20044;-73
2022/08/11 17:38:16;;;;;;;11.88;8.10;;;30.00;85.40;;;;;;5105451;28;20507;-72
2022/08/11 17:49:15;;;;;;;10.30;7.40;;;29.90;86.50;;;;;;5054784;28;20166;-72
2022/08/11 18:00:18;;;;;;;9.75;6.97;;;29.90;86.00;;;;;;5072705;28;20075;-73
2022/08/11 18:05:36;;;;;;;9.50;6.32;;;29.80;86.10;;;;;;5072224;28;20055;-74
